Time;durP1;ratioP1;P1;durP2;ratioP2;P2;SDS_P1;SDS_P2;PMS_P1;PMS_P2;Temp;Humidity;BMP_temperature;BMP_pressure;BME280_temperature;BME280_humidity;BME280_pressure;Samples;Min_cycle;Max_cycle;Signal;HPM_P1;HPM_P2
2024/01/17 00:01:58;;;;;;;1999.90;999.90;;;-3.80;92.50;;;;;;4956379;28;20405;-75
2024/01/17 00:04:24;;;;;;;1999.90;999.90;;;-3.80;92.50;;;;;;4971465;28;20038;-76
2024/01/17 00:06:50;;;;;;;1999.90;999.90;;;-3.70;92.60;;;;;;4968428;28;20078;-76
2024/01/17 00:09:17;;;;;;;1999.90;999.90;;;-3.60;92.50;;;;;;4991883;28;20031;-76
2024/01/17 00:11:42;;;;;;;1999.90;999.90;;;-3.50;92.80;;;;;;4985649;28;20046;-76
2024/01/17 00:14:09;;;;;;;1999.90;999.90;;;-3.40;92.40;;;;;;4984531;28;20073;-76
2024/01/17 00:16:34;;;;;;;1999.90;999.90;;;-3.30;92.30;;;;;;4971944;28;20476;-76
2024/01/17 00:19:00;;;;;;;1999.90;999.90;;;-3.20;92.10;;;;;;4972410;28;20034;-76
2024/01/17 00:21:27;;;;;;;1999.90;999.90;;;-3.30;92.00;;;;;;4973490;28;20589;-76
2024/01/17 00:23:52;;;;;;;1999.90;999.90;;;-3.30;92.00;;;;;;4986865;28;20605;-76
2024/01/17 00:26:18;;;;;;;1999.90;999.90;;;-3.40;92.00;;;;;;4936637;28;20026;-76
2024/01/17 00:28:44;;;;;;;1999.90;999.90;;;-3.40;92.20;;;;;;4971373;28;20035;-76
2024/01/17 00:31:10;;;;;;;1999.90;999.90;;;-3.30;92.20;;;;;;4987742;28;20172;-76
2024/01/17 00:33:35;;;;;;;1999.90;999.90;;;-2.90;92.20;;;;;;4990371;28;20038;-76
2024/01/17 00:36:02;;;;;;;1999.90;999.90;;;-3.00;92.00;;;;;;4991560;28;20065;-76
2024/01/17 00:38:27;;;;;;;1999.90;999.90;;;-3.00;91.80;;;;;;4971951;28;20050;-76
2024/01/17 00:40:53;;;;;;;1999.90;999.90;;;-3.00;91.70;;;;;;4987644;28;20064;-76
2024/01/17 00:43:19;;;;;;;1999.90;999.90;;;-3.10;92.00;;;;;;4970536;28;20386;-76
2024/01/17 00:45:45;;;;;;;1999.90;999.90;;;-3.10;92.00;;;;;;4973563;28;20396;-76
2024/01/17 00:48:13;;;;;;;1999.90;999.90;;;-3.00;92.20;;;;;;4970463;28;20026;-76
2024/01/17 00:50:39;;;;;;;1999.90;999.90;;;-3.10;92.30;;;;;;4972050;28;20046;-76
2024/01/17 00:53:05;;;;;;;1999.90;999.90;;;-3.20;92.30;;;;;;4968456;28;20038;-76
2024/01/17 00:55:31;;;;;;;1999.90;999.90;;;-3.00;92.50;;;;;;4970683;28;20118;-76
2024/01/17 00:57:57;;;;;;;1999.90;999.90;;;-2.80;92.50;;;;;;4974484;28;20412;-76
2024/01/17 01:00:23;;;;;;;1999.90;999.90;;;-2.50;92.40;;;;;;4955374;28;20038;-76
2024/01/17 01:02:50;;;;;;;1999.90;999.90;;;-2.50;92.10;;;;;;4986160;28;20516;-76
2024/01/17 01:05:16;;;;;;;1999.90;999.90;;;-2.30;92.10;;;;;;4971134;28;20497;-76
2024/01/17 01:07:41;;;;;;;1999.90;999.90;;;-2.40;91.80;;;;;;4971947;28;20038;-76
2024/01/17 01:10:07;;;;;;;1999.90;999.90;;;-2.50;91.80;;;;;;4955972;28;20506;-76
2024/01/17 01:12:33;;;;;;;1999.90;999.90;;;-2.40;91.90;;;;;;4987287;28;20038;-76
2024/01/17 01:14:58;;;;;;;1999.90;999.90;;;-2.60;92.00;;;;;;4965042;28;20472;-77
2024/01/17 01:17:25;;;;;;;1999.90;999.90;;;-2.80;92.30;;;;;;4965550;28;20042;-76
2024/01/17 01:19:50;;;;;;;1999.90;999.90;;;-2.80;92.50;;;;;;4965598;28;20039;-77
2024/01/17 01:22:16;;;;;;;1999.90;999.90;;;-2.80;92.30;;;;;;4956553;28;20507;-77
2024/01/17 01:24:41;;;;;;;1999.90;999.90;;;-2.70;92.60;;;;;;4960315;28;20027;-76
2024/01/17 01:27:07;;;;;;;1999.90;999.90;;;-2.60;92.70;;;;;;4984893;28;20042;-76
2024/01/17 01:29:33;;;;;;;1999.90;999.90;;;-2.70;92.30;;;;;;4992533;28;20523;-76
2024/01/17 01:31:58;;;;;;;1999.90;999.90;;;-3.00;92.40;;;;;;4961439;28;20629;-77
2024/01/17 01:34:24;;;;;;;1999.90;999.90;;;-3.10;92.60;;;;;;4975126;28;20044;-76
2024/01/17 01:36:50;;;;;;;1999.90;999.90;;;-3.00;92.70;;;;;;4955342;28;20038;-76
2024/01/17 01:39:16;;;;;;;1999.90;999.90;;;-2.90;92.90;;;;;;4969983;28;20027;-76
2024/01/17 01:41:41;;;;;;;1999.90;999.90;;;-2.90;92.80;;;;;;4982353;28;20030;-76
2024/01/17 01:44:07;;;;;;;1999.90;999.90;;;-2.80;92.90;;;;;;4996821;28;20041;-76
2024/01/17 01:46:33;;;;;;;1999.90;999.90;;;-2.90;92.60;;;;;;4994924;28;20061;-76
2024/01/17 01:48:59;;;;;;;1999.90;999.90;;;-2.80;92.70;;;;;;4962518;28;20030;-76
2024/01/17 01:51:26;;;;;;;1999.90;999.90;;;-2.90;92.60;;;;;;4974810;28;20038;-76
2024/01/17 01:53:57;;;;;;;1999.90;999.90;;;-2.90;92.50;;;;;;4973385;28;20564;-76
2024/01/17 01:56:27;;;;;;;1999.90;999.90;;;-3.00;92.40;;;;;;4989312;28;20085;-78
2024/01/17 01:58:55;;;;;;;1999.90;999.90;;;-3.10;92.40;;;;;;4961052;28;20065;-78
2024/01/17 02:01:23;;;;;;;1999.90;999.90;;;-3.20;92.50;;;;;;4974101;28;20049;-77
2024/01/17 02:03:49;;;;;;;1999.90;999.90;;;-3.20;92.40;;;;;;4974400;28;20038;-77
2024/01/17 02:06:17;;;;;;;1999.90;999.90;;;-3.10;92.60;;;;;;4979392;28;20030;-77
2024/01/17 02:08:43;;;;;;;1999.90;999.90;;;-3.20;92.40;;;;;;4993692;28;20046;-77
2024/01/17 02:11:09;;;;;;;1999.90;999.90;;;-3.00;92.50;;;;;;4994882;28;20034;-77
2024/01/17 02:13:35;;;;;;;1999.90;999.90;;;-2.90;92.10;;;;;;4977350;28;20041;-77
2024/01/17 02:16:01;;;;;;;1999.90;999.90;;;-2.90;92.30;;;;;;4990303;28;20042;-77
2024/01/17 02:18:27;;;;;;;1999.90;999.90;;;-2.90;92.20;;;;;;4993577;28;20038;-77
2024/01/17 02:20:52;;;;;;;1999.90;999.90;;;-2.90;92.40;;;;;;4977112;28;20524;-77
2024/01/17 02:23:24;;;;;;;1999.90;999.90;;;-3.00;92.40;;;;;;4960291;28;20031;-77
2024/01/17 02:25:51;;;;;;;1999.90;999.90;;;-3.00;92.60;;;;;;4988530;28;20038;-76
2024/01/17 02:28:17;;;;;;;1999.90;999.90;;;-3.00;92.70;;;;;;4987748;28;20018;-77
2024/01/17 02:30:44;;;;;;;1999.90;999.90;;;-2.90;92.70;;;;;;4990246;28;20522;-77
2024/01/17 02:33:10;;;;;;;1999.90;999.90;;;-3.00;92.60;;;;;;4977275;28;20029;-77
2024/01/17 02:35:37;;;;;;;1999.90;999.90;;;-2.80;92.80;;;;;;4990432;28;20031;-77
2024/01/17 02:38:03;;;;;;;1999.90;999.90;;;-2.80;92.60;;;;;;4985052;28;20034;-77
2024/01/17 02:40:28;;;;;;;1999.90;999.90;;;-2.80;92.50;;;;;;4989631;28;20053;-76
2024/01/17 02:42:54;;;;;;;1999.90;999.90;;;-3.10;92.20;;;;;;4961804;28;20038;-76
2024/01/17 02:45:21;;;;;;;1999.90;999.90;;;-3.20;92.50;;;;;;4972216;28;20030;-76
2024/01/17 02:47:47;;;;;;;1999.90;999.90;;;-3.20;92.90;;;;;;4977062;28;20027;-76
2024/01/17 02:50:14;;;;;;;1999.90;999.90;;;-3.20;93.30;;;;;;4971128;28;20026;-76
2024/01/17 02:52:50;;;;;;;1999.90;999.90;;;-3.20;93.00;;;;;;4957463;28;20072;-76
2024/01/17 02:55:16;;;;;;;1999.90;999.90;;;-2.80;93.10;;;;;;4988782;28;20038;-77
2024/01/17 02:57:42;;;;;;;1999.90;999.90;;;-2.70;93.00;;;;;;4989099;28;20034;-76
2024/01/17 03:00:09;;;;;;;1999.90;999.90;;;-2.70;92.90;;;;;;4954926;28;20043;-77
2024/01/17 03:02:35;;;;;;;1999.90;999.90;;;-2.60;92.70;;;;;;4984754;28;20055;-77
2024/01/17 03:05:03;;;;;;;1999.90;999.90;;;-2.60;92.80;;;;;;4987126;28;20041;-77
2024/01/17 03:07:29;;;;;;;1999.90;999.90;;;-2.50;92.80;;;;;;4950810;28;20038;-77
2024/01/17 03:09:54;;;;;;;1999.90;999.90;;;-2.50;92.50;;;;;;4981294;28;20110;-77
2024/01/17 03:12:20;;;;;;;1999.90;999.90;;;-2.70;92.40;;;;;;4986580;28;20038;-76
2024/01/17 03:14:46;;;;;;;1999.90;999.90;;;-2.60;92.70;;;;;;4981847;28;20037;-77
2024/01/17 03:17:14;;;;;;;1999.90;999.90;;;-2.60;92.30;;;;;;4967588;28;20035;-76
2024/01/17 03:19:42;;;;;;;1999.90;999.90;;;-2.50;92.50;;;;;;4984301;28;20046;-77
2024/01/17 03:22:08;;;;;;;1999.90;999.90;;;-2.40;92.60;;;;;;4971202;28;20039;-77
2024/01/17 03:24:36;;;;;;;1999.90;999.90;;;-2.30;92.60;;;;;;4972771;28;20030;-76
2024/01/17 03:27:02;;;;;;;1999.90;999.90;;;-2.20;92.60;;;;;;4986152;28;20628;-77
2024/01/17 03:29:28;;;;;;;1999.90;999.90;;;-2.30;92.70;;;;;;4989956;28;20027;-77
2024/01/17 03:31:53;;;;;;;1999.90;999.90;;;-2.00;92.80;;;;;;4952031;28;20531;-77
2024/01/17 03:34:20;;;;;;;1999.90;999.90;;;-2.00;92.40;;;;;;4980051;28;20556;-77
2024/01/17 03:36:46;;;;;;;1999.90;999.90;;;-2.20;92.50;;;;;;4975393;28;20027;-78
2024/01/17 03:39:12;;;;;;;1999.90;999.90;;;-2.00;92.80;;;;;;4990155;28;20036;-77
2024/01/17 03:41:39;;;;;;;1999.90;999.90;;;-1.90;92.80;;;;;;4975045;28;20034;-77
2024/01/17 03:44:05;;;;;;;1999.90;999.90;;;-1.90;92.80;;;;;;4991231;28;20027;-78
2024/01/17 03:46:31;;;;;;;1999.90;999.90;;;-2.00;92.80;;;;;;4987949;28;20129;-77
2024/01/17 03:48:57;;;;;;;1999.90;999.90;;;-2.10;93.20;;;;;;4992043;28;20113;-78
2024/01/17 03:51:22;;;;;;;1999.90;999.90;;;-2.00;93.30;;;;;;4973791;28;20038;-78
2024/01/17 03:53:48;;;;;;;1999.90;999.90;;;-2.10;93.10;;;;;;4989607;28;20493;-78
2024/01/17 03:56:14;;;;;;;1999.90;999.90;;;-1.80;93.40;;;;;;4959357;28;20034;-78
2024/01/17 03:58:43;;;;;;;1999.90;999.90;;;-1.70;93.70;;;;;;4977023;28;20108;-78
2024/01/17 04:01:10;;;;;;;1999.90;999.90;;;-1.60;93.70;;;;;;4972746;28;20038;-77
2024/01/17 04:03:36;;;;;;;1999.90;999.90;;;-1.90;93.50;;;;;;4977189;28;20073;-77
2024/01/17 04:06:03;;;;;;;1999.90;999.90;;;-1.90;93.70;;;;;;4973943;28;20488;-78
2024/01/17 04:08:29;;;;;;;1999.90;999.90;;;-1.50;93.80;;;;;;4991555;28;20384;-79
2024/01/17 04:10:55;;;;;;;1999.90;999.90;;;-1.50;93.70;;;;;;4989164;28;20782;-78
2024/01/17 04:13:41;;;;;;;1999.90;999.90;;;-1.70;93.60;;;;;;4988524;28;20121;-78
2024/01/17 04:16:07;;;;;;;1999.90;999.90;;;-1.80;93.90;;;;;;4954232;28;20390;-78
2024/01/17 04:18:35;;;;;;;1999.90;999.90;;;-1.60;94.00;;;;;;4976221;28;20034;-77
2024/01/17 04:21:02;;;;;;;1999.90;999.90;;;-1.50;94.00;;;;;;4973179;28;20060;-78
2024/01/17 04:23:28;;;;;;;1999.90;999.90;;;-1.10;94.20;;;;;;4972158;28;20117;-78
2024/01/17 04:25:53;;;;;;;1999.90;999.90;;;-1.40;93.70;;;;;;4973372;28;20113;-77
2024/01/17 04:28:19;;;;;;;1999.90;999.90;;;-1.30;93.80;;;;;;4972739;28;20061;-77
2024/01/17 04:30:45;;;;;;;1999.90;999.90;;;-1.10;94.10;;;;;;4974657;28;20041;-77
2024/01/17 04:33:10;;;;;;;1999.90;999.90;;;-0.90;94.20;;;;;;4958656;28;20431;-77
2024/01/17 04:35:37;;;;;;;1999.90;999.90;;;-1.10;93.90;;;;;;4955073;28;20448;-77
2024/01/17 04:38:03;;;;;;;1999.90;999.90;;;-1.40;94.30;;;;;;4970014;28;20037;-78
2024/01/17 04:40:29;;;;;;;1999.90;999.90;;;-1.50;94.70;;;;;;4957750;28;20384;-76
2024/01/17 04:42:54;;;;;;;1999.90;999.90;;;-1.50;94.50;;;;;;4989587;28;20536;-78
2024/01/17 04:45:20;;;;;;;1999.90;999.90;;;-1.30;94.90;;;;;;4993277;28;20033;-77
2024/01/17 04:47:48;;;;;;;1999.90;999.90;;;-1.20;94.80;;;;;;4954793;28;20058;-76
2024/01/17 04:50:15;;;;;;;1999.90;999.90;;;-1.10;95.00;;;;;;4975886;28;20080;-77
2024/01/17 04:52:41;;;;;;;1999.90;999.90;;;-1.00;95.00;;;;;;4974663;28;20035;-77
2024/01/17 04:55:13;;;;;;;1999.90;999.90;;;-0.90;94.80;;;;;;4961046;28;20220;-77
2024/01/17 04:57:39;;;;;;;1999.90;999.90;;;-0.70;95.00;;;;;;4957628;28;20058;-77
2024/01/17 05:00:08;;;;;;;1999.90;999.90;;;-0.80;94.50;;;;;;4984230;28;20070;-77
2024/01/17 05:02:34;;;;;;;1999.90;999.90;;;-1.10;94.50;;;;;;4971531;28;20065;-77
2024/01/17 05:05:00;;;;;;;1999.90;999.90;;;-1.30;94.60;;;;;;4997142;28;20027;-77
2024/01/17 05:07:26;;;;;;;1999.90;999.90;;;-1.30;94.90;;;;;;4985558;28;20777;-77
2024/01/17 05:09:52;;;;;;;1999.90;999.90;;;-1.40;94.90;;;;;;4973404;28;20034;-77
2024/01/17 05:12:18;;;;;;;1999.90;999.90;;;-1.00;95.20;;;;;;4958547;28;20041;-77
2024/01/17 05:14:43;;;;;;;1999.90;999.90;;;-0.80;95.20;;;;;;4971639;28;20035;-78
2024/01/17 05:17:09;;;;;;;1999.90;999.90;;;-0.80;94.90;;;;;;4959900;28;20030;-78
2024/01/17 05:19:35;;;;;;;1999.90;999.90;;;-0.60;95.00;;;;;;4975005;28;20042;-77
2024/01/17 05:22:01;;;;;;;1999.90;999.90;;;-0.60;94.80;;;;;;4970790;28;20036;-77
2024/01/17 05:24:26;;;;;;;1999.90;999.90;;;-0.70;94.90;;;;;;4967774;28;20034;-76
2024/01/17 05:26:53;;;;;;;1999.90;999.90;;;-0.70;94.90;;;;;;4970194;28;20062;-78
2024/01/17 05:29:19;;;;;;;1999.90;999.90;;;-0.70;94.90;;;;;;4985038;28;20416;-78
2024/01/17 05:31:44;;;;;;;1999.90;999.90;;;-0.90;94.80;;;;;;4971296;28;20039;-78
2024/01/17 05:34:10;;;;;;;1999.90;999.90;;;-0.70;95.10;;;;;;4990280;28;20113;-78
2024/01/17 05:36:37;;;;;;;1999.90;999.90;;;-0.60;95.10;;;;;;4954893;28;20026;-77
2024/01/17 05:39:04;;;;;;;1999.90;999.90;;;-0.50;95.10;;;;;;4975937;28;20092;-78
2024/01/17 05:41:30;;;;;;;1999.90;999.90;;;-0.50;95.10;;;;;;4990336;28;20030;-78
2024/01/17 05:43:55;;;;;;;1999.90;999.90;;;-0.30;95.10;;;;;;4984397;28;20053;-77
2024/01/17 05:46:21;;;;;;;1999.90;999.90;;;-0.20;94.90;;;;;;4987338;28;20058;-77
2024/01/17 05:48:47;;;;;;;1999.90;999.90;;;-0.20;94.90;;;;;;4971540;28;20049;-78
2024/01/17 05:51:13;;;;;;;1999.90;999.90;;;-0.20;94.90;;;;;;4964659;28;20777;-77
2024/01/17 05:53:39;;;;;;;1999.90;999.90;;;-0.10;94.90;;;;;;4985305;28;20033;-77
2024/01/17 05:56:04;;;;;;;1999.90;999.90;;;-0.20;94.90;;;;;;4984661;28;20039;-77
2024/01/17 05:58:30;;;;;;;1999.90;999.90;;;-0.20;94.90;;;;;;4969405;28;20065;-76
2024/01/17 06:00:56;;;;;;;1999.90;999.90;;;-0.20;95.00;;;;;;4970376;28;20042;-76
2024/01/17 06:03:21;;;;;;;1999.90;999.90;;;-0.20;95.00;;;;;;4968736;28;20093;-76
2024/01/17 06:05:51;;;;;;;1999.90;999.90;;;-0.10;95.00;;;;;;4970024;28;20576;-76
2024/01/17 06:08:16;;;;;;;1999.90;999.90;;;0.00;95.00;;;;;;4972694;28;20396;-76
2024/01/17 06:10:42;;;;;;;1999.90;999.90;;;0.10;95.10;;;;;;4972027;28;20038;-74
2024/01/17 06:13:08;;;;;;;1999.90;999.90;;;0.10;95.10;;;;;;4973932;28;20375;-76
2024/01/17 06:15:34;;;;;;;1999.90;999.90;;;0.10;95.10;;;;;;4965318;28;20035;-75
2024/01/17 06:18:00;;;;;;;1999.90;999.90;;;0.10;95.20;;;;;;4984067;28;20034;-76
2024/01/17 06:20:25;;;;;;;1999.90;999.90;;;0.10;95.20;;;;;;4988320;28;20037;-76
2024/01/17 06:22:51;;;;;;;1999.90;999.90;;;0.00;95.10;;;;;;4988565;28;20022;-77
2024/01/17 06:25:17;;;;;;;1999.90;999.90;;;0.00;95.30;;;;;;4965928;28;20026;-70
2024/01/17 06:27:42;;;;;;;1999.90;999.90;;;0.00;95.20;;;;;;4967764;28;20042;-71
2024/01/17 06:30:09;;;;;;;1999.90;999.90;;;0.00;95.20;;;;;;4963152;28;20046;-71
2024/01/17 06:32:34;;;;;;;1999.90;999.90;;;0.10;95.50;;;;;;4986315;28;20034;-71
2024/01/17 06:35:00;;;;;;;1999.90;999.90;;;0.00;95.50;;;;;;4966113;28;20038;-71
2024/01/17 06:37:26;;;;;;;1999.90;999.90;;;0.10;95.70;;;;;;4973701;28;20034;-71
2024/01/17 06:39:51;;;;;;;1999.90;999.90;;;0.20;95.60;;;;;;4986823;28;20531;-71
2024/01/17 06:42:17;;;;;;;1999.90;999.90;;;0.10;95.80;;;;;;4987224;28;20503;-76
2024/01/17 06:44:45;;;;;;;1999.90;999.90;;;-0.10;95.50;;;;;;4988768;28;20049;-70
2024/01/17 06:47:10;;;;;;;1999.90;999.90;;;-0.10;96.10;;;;;;4992459;28;20026;-72
2024/01/17 06:49:36;;;;;;;1999.90;999.90;;;0.00;96.30;;;;;;4976224;28;20030;-72
2024/01/17 06:52:02;;;;;;;1999.90;999.90;;;0.00;96.20;;;;;;4991392;28;20042;-70
2024/01/17 06:54:27;;;;;;;1999.90;999.90;;;0.00;96.40;;;;;;4972550;28;20157;-70
2024/01/17 06:56:55;;;;;;;1999.90;999.90;;;0.00;96.40;;;;;;4969944;28;20027;-70
2024/01/17 06:59:26;;;;;;;1999.90;999.90;;;0.00;96.60;;;;;;4985907;28;20034;-69
2024/01/17 07:01:51;;;;;;;1999.90;999.90;;;0.10;96.70;;;;;;4983141;28;20038;-69
2024/01/17 07:04:17;;;;;;;1999.90;999.90;;;0.10;96.90;;;;;;4984589;28;20035;-69
2024/01/17 07:06:43;;;;;;;1999.90;999.90;;;0.20;96.90;;;;;;4966530;28;20035;-68
2024/01/17 07:09:10;;;;;;;1999.90;999.90;;;0.10;96.90;;;;;;4969430;28;20034;-69
2024/01/17 07:11:37;;;;;;;1999.90;999.90;;;0.10;97.00;;;;;;4991297;28;20022;-68
2024/01/17 07:14:03;;;;;;;1999.90;999.90;;;0.20;97.10;;;;;;4983445;28;20035;-69
2024/01/17 07:16:31;;;;;;;1999.90;999.90;;;0.20;97.10;;;;;;4974907;28;20042;-68
2024/01/17 07:18:58;;;;;;;1999.90;999.90;;;0.20;97.30;;;;;;4988790;28;20030;-69
2024/01/17 07:21:24;;;;;;;1999.90;999.90;;;0.50;97.90;;;;;;4972877;28;20053;-69
2024/01/17 07:23:50;;;;;;;1999.90;999.90;;;0.50;98.00;;;;;;4988281;28;20034;-69
2024/01/17 07:26:15;;;;;;;1999.90;999.90;;;0.40;98.10;;;;;;4991746;28;20026;-69
2024/01/17 07:28:41;;;;;;;1999.90;999.90;;;0.50;98.30;;;;;;4991899;28;20034;-69
2024/01/17 07:31:07;;;;;;;1999.90;999.90;;;0.40;98.40;;;;;;4987253;28;20074;-69
2024/01/17 07:33:32;;;;;;;1999.90;999.90;;;0.30;98.70;;;;;;4989631;28;20181;-69
2024/01/17 07:35:58;;;;;;;1999.90;999.90;;;0.40;99.40;;;;;;4991167;28;20042;-68
2024/01/17 07:38:25;;;;;;;1999.90;999.90;;;0.30;99.50;;;;;;4988824;28;20038;-69
2024/01/17 07:40:50;;;;;;;1999.90;999.90;;;0.50;99.90;;;;;;4987992;28;20121;-69
2024/01/17 07:43:17;;;;;;;1999.90;999.90;;;0.50;99.90;;;;;;4990801;28;20133;-69
2024/01/17 07:45:45;;;;;;;1999.90;999.90;;;0.50;99.90;;;;;;4989812;28;20034;-69
2024/01/17 07:48:11;;;;;;;1999.90;999.90;;;0.60;99.90;;;;;;4990213;28;20047;-69
2024/01/17 07:50:37;;;;;;;1999.90;999.90;;;0.50;99.90;;;;;;4970389;28;20068;-70
2024/01/17 07:53:02;;;;;;;1999.90;999.90;;;3.00;99.90;;;;;;4985235;28;20050;-69
2024/01/17 07:55:28;;;;;;;1999.90;999.90;;;3.30;99.90;;;;;;4986008;28;20042;-71
2024/01/17 07:57:54;;;;;;;1999.90;999.90;;;3.30;99.90;;;;;;4987793;28;20042;-70
2024/01/17 08:00:20;;;;;;;1999.90;999.90;;;2.90;99.90;;;;;;4990754;28;20027;-70
2024/01/17 08:02:45;;;;;;;1999.90;999.90;;;2.70;99.90;;;;;;4953676;28;20460;-71
2024/01/17 08:05:12;;;;;;;1999.90;999.90;;;2.70;99.90;;;;;;4990271;28;20034;-69
2024/01/17 08:07:38;;;;;;;1999.90;999.90;;;2.30;99.90;;;;;;4986038;28;20066;-70
2024/01/17 08:10:04;;;;;;;1999.90;999.90;;;1.80;99.90;;;;;;4987006;28;20058;-70
2024/01/17 08:12:29;;;;;;;1999.90;999.90;;;1.60;99.90;;;;;;4974401;28;20133;-70
2024/01/17 08:14:55;;;;;;;1999.90;999.90;;;1.80;99.90;;;;;;4969497;28;20620;-70
2024/01/17 08:17:21;;;;;;;1999.90;999.90;;;1.80;99.90;;;;;;4968814;28;20050;-70
2024/01/17 08:19:47;;;;;;;1999.90;999.90;;;1.30;99.90;;;;;;4988845;28;20030;-70
2024/01/17 08:22:12;;;;;;;1999.90;999.90;;;1.60;99.90;;;;;;4973184;28;20452;-70
2024/01/17 08:24:40;;;;;;;1999.90;999.90;;;1.60;99.90;;;;;;4987529;28;20061;-70
2024/01/17 08:27:06;;;;;;;1999.90;999.90;;;1.70;99.90;;;;;;4988913;28;20049;-69
2024/01/17 08:29:31;;;;;;;1999.90;999.90;;;1.30;99.90;;;;;;4987710;28;20034;-70
2024/01/17 08:31:57;;;;;;;1999.90;999.90;;;1.20;99.90;;;;;;4984210;28;20401;-70
2024/01/17 08:34:23;;;;;;;1999.90;999.90;;;1.10;99.90;;;;;;4985490;28;20423;-70
2024/01/17 08:36:49;;;;;;;1999.90;999.90;;;1.10;99.90;;;;;;4970735;28;20088;-70
2024/01/17 08:39:17;;;;;;;1999.90;999.90;;;1.80;99.90;;;;;;4989291;28;20038;-70
2024/01/17 08:41:45;;;;;;;1999.90;999.90;;;1.90;99.90;;;;;;4988610;28;20066;-70
2024/01/17 08:44:15;;;;;;;1999.90;999.90;;;2.00;99.90;;;;;;4983376;28;20078;-70
2024/01/17 08:46:48;;;;;;;1999.90;999.90;;;1.50;99.90;;;;;;4988163;28;20049;-71
2024/01/17 08:49:14;;;;;;;1999.90;999.90;;;2.10;99.90;;;;;;4984198;28;20457;-71
2024/01/17 08:51:40;;;;;;;1999.90;999.90;;;2.00;99.90;;;;;;4986148;28;20055;-75
2024/01/17 08:54:06;;;;;;;1999.90;999.90;;;2.30;99.90;;;;;;4958027;28;20034;-71
2024/01/17 08:56:32;;;;;;;1999.90;999.90;;;1.70;99.90;;;;;;4984637;28;20080;-71
2024/01/17 08:58:58;;;;;;;1999.90;999.90;;;1.50;99.90;;;;;;4989537;28;20026;-71
2024/01/17 09:01:24;;;;;;;1999.90;999.90;;;1.90;99.90;;;;;;4968702;28;20042;-71
2024/01/17 09:03:50;;;;;;;1999.90;999.90;;;1.90;99.90;;;;;;4987703;28;20485;-71
2024/01/17 09:06:16;;;;;;;1999.90;999.90;;;1.70;99.90;;;;;;4989988;28;20061;-71
2024/01/17 09:08:42;;;;;;;1999.90;999.90;;;1.40;99.90;;;;;;4957830;28;20085;-70
2024/01/17 09:11:08;;;;;;;1999.90;999.90;;;2.00;99.90;;;;;;4973678;28;20449;-71
2024/01/17 09:13:34;;;;;;;1999.90;999.90;;;1.80;99.90;;;;;;4987208;28;20117;-71
2024/01/17 09:16:00;;;;;;;1999.90;999.90;;;1.70;99.90;;;;;;4972614;28;20137;-71
2024/01/17 09:18:26;;;;;;;1999.90;999.90;;;2.10;99.90;;;;;;4969696;28;20046;-72
2024/01/17 09:20:52;;;;;;;1999.90;999.90;;;2.40;99.90;;;;;;4973348;28;20031;-71
2024/01/17 09:23:18;;;;;;;1999.90;999.90;;;2.40;99.90;;;;;;4989751;28;20041;-70
2024/01/17 09:25:44;;;;;;;1999.90;999.90;;;1.80;99.90;;;;;;4967717;28;20126;-72
2024/01/17 09:28:10;;;;;;;1999.90;999.90;;;2.20;99.90;;;;;;4974828;28;20117;-73
2024/01/17 09:30:36;;;;;;;1999.90;999.90;;;1.80;99.90;;;;;;4987633;28;20125;-72
2024/01/17 09:33:02;;;;;;;1999.90;999.90;;;1.70;99.90;;;;;;4971181;28;20122;-73
2024/01/17 09:35:32;;;;;;;1999.90;999.90;;;2.40;99.90;;;;;;4954576;28;20049;-73
2024/01/17 09:37:58;;;;;;;1999.90;999.90;;;2.20;99.90;;;;;;4985964;28;20035;-72
2024/01/17 09:40:24;;;;;;;1999.90;999.90;;;1.70;99.90;;;;;;4989023;28;20052;-73
2024/01/17 09:42:51;;;;;;;1999.90;999.90;;;1.60;99.90;;;;;;4986940;28;20401;-71
2024/01/17 09:45:18;;;;;;;1999.90;999.90;;;2.00;99.90;;;;;;4985354;28;20041;-72
2024/01/17 09:47:45;;;;;;;1999.90;999.90;;;1.90;99.90;;;;;;4986811;28;20053;-72
2024/01/17 09:50:11;;;;;;;1999.90;999.90;;;2.00;99.90;;;;;;4990278;28;20030;-72
2024/01/17 09:52:40;;;;;;;1999.90;999.90;;;1.70;99.90;;;;;;4966248;28;20045;-73
2024/01/17 09:55:08;;;;;;;1999.90;999.90;;;1.60;99.90;;;;;;4986054;28;20034;-73
2024/01/17 09:57:41;;;;;;;1999.90;999.90;;;1.60;99.90;;;;;;4981102;28;20113;-73
2024/01/17 10:00:09;;;;;;;1999.90;999.90;;;1.70;99.90;;;;;;4987680;28;20027;-74
2024/01/17 10:02:39;;;;;;;1999.90;999.90;;;1.70;99.90;;;;;;4982493;28;20154;-74
2024/01/17 10:05:07;;;;;;;1999.90;999.90;;;1.70;99.90;;;;;;4989743;28;20125;-74
2024/01/17 10:07:33;;;;;;;1999.90;999.90;;;1.50;99.90;;;;;;4989915;28;20026;-73
2024/01/17 10:09:59;;;;;;;1999.90;999.90;;;1.60;99.90;;;;;;4989553;28;20375;-72
2024/01/17 10:12:25;;;;;;;1999.90;999.90;;;1.80;99.90;;;;;;4985526;28;20040;-73
2024/01/17 10:14:51;;;;;;;1999.90;999.90;;;1.80;99.90;;;;;;4990438;28;20030;-74
2024/01/17 10:17:16;;;;;;;1999.90;999.90;;;1.70;99.90;;;;;;4968606;28;20096;-73
2024/01/17 10:19:42;;;;;;;1999.90;999.90;;;1.80;99.90;;;;;;4955025;28;20034;-73
2024/01/17 10:22:11;;;;;;;1999.90;999.90;;;1.90;99.90;;;;;;4985095;28;20521;-73
2024/01/17 10:24:38;;;;;;;1999.90;999.90;;;1.90;99.90;;;;;;4968694;28;20069;-74
2024/01/17 10:27:06;;;;;;;1999.90;999.90;;;2.10;99.90;;;;;;4971409;28;20095;-74
2024/01/17 10:29:32;;;;;;;1999.90;999.90;;;2.10;99.90;;;;;;4987064;28;20041;-73
2024/01/17 10:31:59;;;;;;;1999.90;999.90;;;2.00;99.90;;;;;;4987178;28;20046;-74
2024/01/17 10:34:30;;;;;;;1999.90;999.90;;;1.90;99.90;;;;;;4984388;28;20118;-75
2024/01/17 10:36:56;;;;;;;1999.90;999.90;;;1.80;99.90;;;;;;4956829;28;20039;-74
2024/01/17 10:39:23;;;;;;;1999.90;999.90;;;1.90;99.90;;;;;;4983791;28;20038;-73
2024/01/17 10:41:51;;;;;;;1999.90;999.90;;;1.90;99.90;;;;;;4982804;28;20439;-73
2024/01/17 10:44:20;;;;;;;1999.90;999.90;;;1.90;99.90;;;;;;4965135;28;20552;-75
2024/01/17 10:46:54;;;;;;;1999.90;999.90;;;1.90;99.90;;;;;;4965788;28;20137;-73
2024/01/17 10:49:21;;;;;;;1999.90;999.90;;;1.80;99.90;;;;;;4970507;28;20026;-73
2024/01/17 10:51:59;;;;;;;1999.90;999.90;;;2.00;99.90;;;;;;4984825;28;20718;-72
2024/01/17 10:54:54;;;;;;;1999.90;999.90;;;2.10;99.90;;;;;;4968976;28;20413;-71
2024/01/17 10:57:21;;;;;;;1999.90;999.90;;;2.20;99.90;;;;;;4948521;28;20529;-72
2024/01/17 10:59:48;;;;;;;1999.90;999.90;;;2.30;99.90;;;;;;4983290;28;20030;-71
2024/01/17 11:02:23;;;;;;;1999.90;999.90;;;2.40;99.90;;;;;;4973111;28;20074;-71
2024/01/17 11:04:57;;;;;;;1999.90;999.90;;;2.40;99.90;;;;;;4973112;28;20831;-72
2024/01/17 11:07:24;;;;;;;1999.90;999.90;;;2.40;99.90;;;;;;4986033;28;20027;-72
2024/01/17 11:09:53;;;;;;;1999.90;999.90;;;2.50;99.90;;;;;;4989414;28;20034;-71
2024/01/17 11:12:20;;;;;;;1999.90;999.90;;;2.50;99.90;;;;;;4983856;28;20044;-72
2024/01/17 11:14:47;;;;;;;1999.90;999.90;;;2.60;99.90;;;;;;4993027;28;20070;-71
2024/01/17 11:17:15;;;;;;;1999.90;999.90;;;2.40;99.90;;;;;;4970965;28;20027;-76
2024/01/17 11:19:49;;;;;;;1999.90;999.90;;;2.60;99.90;;;;;;4989829;28;20034;-79
2024/01/17 11:22:16;;;;;;;1999.90;999.90;;;2.80;99.90;;;;;;4985419;28;20417;-75
2024/01/17 11:24:57;;;;;;;1999.90;999.90;;;2.80;99.90;;;;;;4970793;28;20037;-72
2024/01/17 11:27:33;;;;;;;1999.90;999.90;;;2.90;99.90;;;;;;4986293;28;20057;-72
2024/01/17 11:30:28;;;;;;;1999.90;999.90;;;3.00;99.90;;;;;;4985870;28;20076;-70
2024/01/17 11:33:12;;;;;;;1999.90;999.90;;;3.30;99.90;;;;;;4981045;28;20049;-73
2024/01/17 11:35:49;;;;;;;1999.90;999.90;;;3.40;99.90;;;;;;4967675;28;20046;-72
2024/01/17 11:38:24;;;;;;;1999.90;999.90;;;3.60;99.90;;;;;;4966412;28;20039;-72
2024/01/17 11:40:54;;;;;;;1999.90;999.90;;;3.70;99.90;;;;;;4983624;28;20030;-72
2024/01/17 11:43:20;;;;;;;1999.90;999.90;;;3.70;99.90;;;;;;4987967;28;20037;-72
2024/01/17 11:45:56;;;;;;;1999.90;999.90;;;3.70;99.90;;;;;;4960394;28;20030;-71
2024/01/17 11:48:26;;;;;;;1999.90;999.90;;;3.80;99.90;;;;;;4983737;28;20061;-72
2024/01/17 11:51:08;;;;;;;1999.90;999.90;;;3.70;99.90;;;;;;4966441;28;20120;-72
2024/01/17 11:53:37;;;;;;;1999.90;999.90;;;3.70;99.90;;;;;;4985291;28;20448;-72
2024/01/17 11:56:05;;;;;;;1999.90;999.90;;;3.60;99.90;;;;;;4972624;28;20041;-72
2024/01/17 11:58:47;;;;;;;1999.90;999.90;;;3.40;99.90;;;;;;4987007;28;20045;-71
2024/01/17 12:01:22;;;;;;;1999.90;999.90;;;3.50;99.90;;;;;;4984682;28;20295;-73
2024/01/17 12:03:48;;;;;;;1999.90;999.90;;;3.50;99.90;;;;;;4986156;28;20038;-73